createdAt,value
2018-05-14T00:02:00.523Z,113.30
2018-05-14T00:04:27.988Z,84.83
2018-05-14T00:06:55.393Z,164.10
2018-05-14T00:09:22.809Z,151.93
2018-05-14T00:11:50.251Z,418.67
2018-05-14T00:14:17.659Z,152.67
2018-05-14T00:16:45.448Z,227.60
2018-05-14T00:19:12.852Z,111.97
2018-05-14T00:21:40.260Z,382.30
2018-05-14T00:24:07.684Z,414.20
2018-05-14T00:26:35.140Z,176.07
2018-05-14T00:29:02.581Z,150.77
2018-05-14T00:31:29.992Z,156.77
2018-05-14T00:33:57.409Z,191.57
2018-05-14T00:36:24.832Z,190.20
2018-05-14T00:38:52.237Z,147.90
2018-05-14T00:41:19.668Z,247.57
2018-05-14T00:43:47.076Z,148.20
2018-05-14T00:46:14.517Z,135.47
2018-05-14T00:48:41.932Z,113.00
2018-05-14T00:51:09.621Z,96.90
2018-05-14T00:53:37.037Z,97.17
2018-05-14T00:56:04.450Z,253.00
2018-05-14T00:58:31.879Z,133.33
2018-05-14T01:00:59.283Z,102.37
2018-05-14T01:03:26.715Z,121.53
2018-05-14T01:05:54.120Z,134.07
2018-05-14T01:08:21.545Z,108.53
2018-05-14T01:10:48.963Z,88.27
2018-05-14T01:13:16.369Z,122.77
2018-05-14T01:15:43.939Z,78.60
2018-05-14T01:18:11.348Z,99.13
2018-05-14T01:20:38.744Z,93.23
2018-05-14T01:23:06.168Z,221.37
2018-05-14T01:25:33.593Z,136.60
2018-05-14T01:28:01.088Z,149.33
2018-05-14T01:30:28.415Z,155.00
2018-05-14T01:32:55.850Z,336.63
2018-05-14T01:35:23.263Z,276.87
2018-05-14T01:37:50.692Z,246.13
2018-05-14T01:40:18.115Z,226.03
2018-05-14T01:42:45.552Z,197.20
2018-05-14T01:45:12.973Z,292.27
2018-05-14T01:47:40.408Z,323.87
2018-05-14T01:50:07.823Z,181.10
2018-05-14T01:52:35.540Z,256.33
2018-05-14T01:55:02.951Z,213.90
2018-05-14T01:57:30.356Z,274.23
2018-05-14T01:59:57.781Z,175.30
2018-05-14T02:02:25.210Z,320.93
2018-05-14T02:04:52.627Z,144.27
2018-05-14T02:07:20.032Z,91.63
2018-05-14T02:09:47.740Z,223.63
2018-05-14T02:12:15.152Z,330.90
2018-05-14T02:14:42.553Z,85.73
2018-05-14T02:17:09.976Z,131.13
2018-05-14T02:19:37.397Z,142.63
2018-05-14T02:22:04.806Z,113.53
2018-05-14T02:24:32.275Z,107.67
2018-05-14T02:26:59.652Z,188.37
2018-05-14T02:29:27.187Z,181.97
2018-05-14T02:31:54.585Z,182.90
2018-05-14T02:34:21.993Z,174.07
2018-05-14T02:36:49.486Z,107.23
2018-05-14T02:39:16.909Z,143.57
2018-05-14T02:41:44.324Z,164.57
2018-05-14T02:44:11.751Z,100.50
2018-05-14T02:46:39.163Z,81.00
2018-05-14T02:49:06.576Z,299.07
2018-05-14T02:51:34.316Z,297.23
2018-05-14T02:54:01.727Z,137.07
2018-05-14T02:56:29.152Z,166.13
2018-05-14T02:58:56.589Z,165.47
2018-05-14T03:01:24.009Z,213.40
2018-05-14T03:03:51.641Z,161.73
2018-05-14T03:06:19.067Z,299.20
2018-05-14T03:08:46.480Z,228.80
2018-05-14T03:11:13.920Z,151.20
2018-05-14T03:13:41.325Z,142.37
2018-05-14T03:16:08.746Z,194.03
2018-05-14T03:18:36.161Z,186.53
2018-05-14T03:21:03.583Z,256.67
2018-05-14T03:23:30.980Z,102.70
2018-05-14T03:25:58.407Z,209.27
2018-05-14T03:28:25.823Z,252.77
2018-05-14T03:30:53.242Z,114.63
2018-05-14T03:33:20.643Z,137.00
2018-05-14T03:35:48.077Z,105.67
2018-05-14T03:38:15.495Z,134.17
2018-05-14T03:40:42.919Z,158.80
2018-05-14T03:43:10.344Z,113.73
2018-05-14T03:45:37.825Z,72.33
2018-05-14T03:48:05.241Z,315.33
2018-05-14T03:50:32.653Z,148.90
2018-05-14T03:53:00.060Z,229.80
2018-05-14T03:55:27.628Z,145.03
2018-05-14T03:57:55.043Z,184.83
2018-05-14T04:00:34.232Z,145.37
2018-05-14T04:03:13.354Z,125.90
2018-05-14T04:05:52.552Z,65.47
2018-05-14T04:08:20.037Z,142.20
2018-05-14T04:10:47.381Z,114.63
2018-05-14T04:13:14.788Z,110.80
2018-05-14T04:15:42.193Z,112.80
2018-05-14T04:18:09.625Z,148.77
2018-05-14T04:20:37.032Z,94.53
2018-05-14T04:23:04.448Z,90.53
2018-05-14T04:25:31.879Z,107.33
2018-05-14T04:27:59.284Z,159.60
2018-05-14T04:30:26.704Z,180.17
2018-05-14T04:32:54.121Z,112.10
2018-05-14T04:35:21.549Z,105.37
2018-05-14T04:37:48.963Z,196.93
2018-05-14T04:40:16.383Z,128.20
2018-05-14T04:42:43.792Z,79.47
2018-05-14T04:45:12.723Z,60.43
2018-05-14T04:47:40.147Z,50.10
2018-05-14T04:50:07.556Z,49.07
2018-05-14T04:52:34.979Z,47.03
2018-05-14T04:55:02.403Z,46.27
2018-05-14T04:57:29.815Z,40.53
2018-05-14T04:59:57.240Z,38.60
2018-05-14T05:02:24.643Z,39.67
2018-05-14T05:04:52.082Z,40.70
2018-05-14T05:07:19.510Z,38.77
2018-05-14T05:09:46.910Z,40.60
2018-05-14T05:12:14.367Z,38.27
2018-05-14T05:14:41.768Z,36.60
2018-05-14T05:17:09.284Z,37.57
2018-05-14T05:19:36.601Z,34.83
2018-05-14T05:22:04.019Z,33.47
2018-05-14T05:24:31.875Z,35.67
2018-05-14T05:26:59.276Z,31.77
2018-05-14T05:29:26.831Z,34.30
2018-05-14T05:31:54.244Z,31.37
2018-05-14T05:34:21.648Z,30.77
2018-05-14T05:36:49.064Z,31.63
2018-05-14T05:39:16.627Z,26.95
2018-05-14T05:41:44.034Z,29.15
2018-05-14T05:44:11.444Z,28.10
2018-05-14T05:46:38.892Z,27.02
2018-05-14T05:49:06.315Z,27.23
2018-05-14T05:51:33.733Z,29.92
2018-05-14T05:54:01.156Z,27.08
2018-05-14T05:56:28.584Z,26.83
2018-05-14T05:58:56.056Z,27.50
2018-05-14T06:01:23.499Z,25.98
2018-05-14T06:03:50.904Z,28.95
2018-05-14T06:06:18.328Z,27.33
2018-05-14T06:08:45.892Z,26.60
2018-05-14T06:11:13.320Z,29.02
2018-05-14T06:13:40.736Z,26.00
2018-05-14T06:16:08.163Z,24.00
2018-05-14T06:18:35.600Z,23.85
2018-05-14T06:21:03.016Z,20.70
2018-05-14T06:23:30.432Z,24.15
2018-05-14T06:25:57.869Z,27.05
2018-05-14T06:28:25.300Z,24.00
2018-05-14T06:30:52.730Z,25.37
2018-05-14T06:33:20.141Z,25.42
2018-05-14T06:35:47.584Z,24.37
2018-05-14T06:38:15.144Z,24.08
2018-05-14T06:40:42.564Z,27.65
2018-05-14T06:43:09.980Z,26.25
2018-05-14T06:45:37.616Z,25.92
2018-05-14T06:48:04.877Z,25.73
2018-05-14T06:50:32.303Z,23.10
2018-05-14T06:52:59.744Z,23.02
2018-05-14T06:55:27.172Z,21.65
2018-05-14T06:57:54.592Z,20.30
2018-05-14T07:00:22.018Z,22.60
2018-05-14T07:02:49.424Z,23.80
2018-05-14T07:05:17.159Z,24.00
2018-05-14T07:07:44.574Z,23.48
2018-05-14T07:10:11.981Z,25.17
2018-05-14T07:12:39.399Z,25.88
2018-05-14T07:15:06.808Z,22.27
2018-05-14T07:17:34.242Z,23.85
2018-05-14T07:20:01.640Z,23.33
2018-05-14T07:22:29.080Z,19.83
2018-05-14T07:24:56.491Z,19.52
2018-05-14T07:27:24.224Z,22.15
2018-05-14T07:29:51.641Z,18.87
2018-05-14T07:32:19.054Z,18.67
2018-05-14T07:34:46.483Z,18.95
2018-05-14T07:37:13.903Z,19.25
2018-05-14T07:39:41.372Z,16.92
2018-05-14T07:42:08.788Z,15.10
2018-05-14T07:44:36.197Z,18.87
2018-05-14T07:47:03.604Z,18.37
2018-05-14T07:49:31.549Z,14.87
2018-05-14T07:51:58.947Z,18.08
2018-05-14T07:54:26.416Z,16.83
2018-05-14T07:56:53.989Z,19.52
2018-05-14T07:59:21.401Z,20.12
2018-05-14T08:01:48.808Z,19.67
2018-05-14T08:04:16.228Z,20.40
2018-05-14T08:06:43.651Z,22.27
2018-05-14T08:09:11.079Z,22.67
2018-05-14T08:11:38.553Z,19.20
2018-05-14T08:14:05.908Z,21.37
2018-05-14T08:16:33.895Z,18.50
2018-05-14T08:19:01.312Z,17.00
2018-05-14T08:21:28.871Z,19.37
2018-05-14T08:23:56.285Z,18.80
2018-05-14T08:26:23.688Z,19.02
2018-05-14T08:28:51.111Z,18.40
2018-05-14T08:31:18.554Z,16.45
2018-05-14T08:33:45.960Z,15.23
2018-05-14T08:36:13.387Z,14.65
2018-05-14T08:38:40.802Z,16.67
2018-05-14T08:41:08.229Z,14.90
2018-05-14T08:43:35.651Z,13.30
2018-05-14T08:46:03.064Z,14.02
2018-05-14T08:48:30.493Z,12.30
2018-05-14T08:50:57.900Z,13.20
2018-05-14T08:53:25.455Z,12.18
2018-05-14T08:55:52.735Z,13.32
2018-05-14T08:58:20.143Z,14.00
2018-05-14T09:00:47.615Z,14.73
2018-05-14T09:03:14.989Z,13.27
2018-05-14T09:05:42.411Z,11.10
2018-05-14T09:08:09.840Z,12.05
2018-05-14T09:10:37.250Z,15.90
2018-05-14T09:13:04.683Z,13.93
2018-05-14T09:15:32.093Z,12.77
2018-05-14T09:17:59.505Z,12.40
2018-05-14T09:20:27.228Z,13.70
2018-05-14T09:22:54.637Z,10.23
2018-05-14T09:25:22.045Z,12.10
2018-05-14T09:27:49.490Z,10.85
2018-05-14T09:30:16.904Z,9.88
2018-05-14T09:32:44.332Z,9.48
2018-05-14T09:35:11.840Z,10.35
2018-05-14T09:37:39.247Z,8.70
2018-05-14T09:40:06.651Z,10.88
2018-05-14T09:42:34.371Z,9.93
2018-05-14T09:45:01.781Z,8.82
2018-05-14T09:47:29.196Z,7.78
2018-05-14T09:49:56.865Z,8.23
2018-05-14T09:52:24.280Z,7.72
2018-05-14T09:54:51.700Z,7.25
2018-05-14T09:57:19.837Z,10.70
2018-05-14T09:59:47.267Z,9.50
2018-05-14T10:02:14.769Z,7.87
2018-05-14T10:04:42.198Z,7.47
2018-05-14T10:07:09.618Z,7.22
2018-05-14T10:09:37.021Z,8.38
2018-05-14T10:12:04.431Z,8.93
2018-05-14T10:14:31.868Z,11.90
2018-05-14T10:16:59.456Z,6.32
2018-05-14T10:19:26.935Z,6.70
2018-05-14T10:21:54.424Z,11.80
2018-05-14T10:24:21.865Z,8.18
2018-05-14T10:26:49.343Z,8.60
2018-05-14T10:29:16.772Z,5.53
2018-05-14T10:31:44.229Z,7.32
2018-05-14T10:34:11.625Z,9.15
2018-05-14T10:36:39.093Z,9.50
2018-05-14T10:39:07.339Z,11.35
2018-05-14T10:41:34.805Z,6.07
2018-05-14T10:44:02.216Z,7.45
2018-05-14T10:46:29.617Z,9.95
2018-05-14T10:48:57.044Z,8.15
2018-05-14T10:51:24.451Z,7.03
2018-05-14T10:53:51.880Z,6.45
2018-05-14T10:56:19.275Z,5.20
2018-05-14T10:58:46.887Z,14.43
2018-05-14T11:01:14.209Z,7.53
2018-05-14T11:03:41.619Z,5.40
2018-05-14T11:06:09.024Z,7.93
2018-05-14T11:08:36.423Z,5.12
2018-05-14T11:11:03.833Z,4.82
2018-05-14T11:13:31.240Z,6.55
2018-05-14T11:15:58.635Z,8.13
2018-05-14T11:18:26.055Z,9.70
2018-05-14T11:20:53.461Z,5.80
2018-05-14T11:23:20.879Z,5.68
2018-05-14T11:25:48.275Z,6.70
2018-05-14T11:28:15.850Z,9.10
2018-05-14T11:30:43.257Z,5.47
2018-05-14T11:33:10.656Z,5.95
2018-05-14T11:35:38.063Z,7.78
2018-05-14T11:38:07.938Z,6.07
2018-05-14T11:40:36.116Z,7.95
2018-05-14T11:43:03.532Z,8.55
2018-05-14T11:45:31.468Z,9.65
2018-05-14T11:47:58.883Z,8.65
2018-05-14T11:50:26.327Z,5.20
2018-05-14T11:52:53.743Z,6.80
2018-05-14T11:55:21.144Z,6.05
2018-05-14T11:57:48.580Z,9.48
2018-05-14T12:00:16.008Z,9.30
2018-05-14T12:02:43.479Z,7.95
2018-05-14T12:05:10.836Z,7.10
2018-05-14T12:07:38.255Z,10.23
2018-05-14T12:10:05.729Z,9.30
2018-05-14T12:12:33.464Z,5.87
2018-05-14T12:15:00.868Z,8.65
2018-05-14T12:17:28.308Z,5.15
2018-05-14T12:19:56.016Z,8.02
2018-05-14T12:22:24.360Z,9.52
2018-05-14T12:24:51.766Z,9.18
2018-05-14T12:27:19.199Z,6.10
2018-05-14T12:29:46.598Z,6.97
2018-05-14T12:32:14.028Z,12.07
2018-05-14T12:34:41.446Z,4.93
2018-05-14T12:37:08.860Z,5.47
2018-05-14T12:39:36.256Z,5.47
2018-05-14T12:42:03.673Z,6.40
2018-05-14T12:44:31.091Z,10.68
2018-05-14T12:46:58.493Z,5.90
2018-05-14T12:49:25.900Z,7.10
2018-05-14T12:51:53.360Z,5.30
2018-05-14T12:54:20.727Z,6.90
2018-05-14T12:56:48.131Z,7.68
2018-05-14T12:59:15.532Z,6.97
2018-05-14T13:01:42.953Z,7.43
2018-05-14T13:04:10.356Z,8.75
2018-05-14T13:06:37.781Z,8.02
2018-05-14T13:09:05.208Z,9.38
2018-05-14T13:11:32.642Z,10.98
2018-05-14T13:14:00.043Z,8.82
2018-05-14T13:16:27.447Z,7.40
2018-05-14T13:18:54.992Z,8.27
2018-05-14T13:21:22.409Z,7.05
2018-05-14T13:23:49.809Z,5.50
2018-05-14T13:26:17.282Z,8.93
2018-05-14T13:28:44.648Z,7.47
2018-05-14T13:31:12.224Z,6.03
2018-05-14T13:33:39.623Z,8.77
2018-05-14T13:36:07.037Z,4.82
2018-05-14T13:38:34.455Z,6.20
2018-05-14T13:41:01.862Z,5.57
2018-05-14T13:43:29.279Z,5.00
2018-05-14T13:45:56.709Z,9.98
2018-05-14T13:48:24.118Z,7.95
2018-05-14T13:50:51.586Z,8.02
2018-05-14T13:53:18.936Z,6.32
2018-05-14T13:55:46.350Z,8.68
2018-05-14T13:58:13.760Z,6.82
2018-05-14T14:00:41.169Z,7.10
2018-05-14T14:03:08.600Z,9.48
2018-05-14T14:05:36.001Z,9.00
2018-05-14T14:08:03.424Z,9.25
2018-05-14T14:10:30.827Z,7.35
2018-05-14T14:12:58.236Z,8.90
2018-05-14T14:15:25.661Z,11.02
2018-05-14T14:17:53.059Z,6.25
2018-05-14T14:20:20.472Z,9.43
2018-05-14T14:22:47.893Z,5.75
2018-05-14T14:25:15.307Z,9.05
2018-05-14T14:27:42.713Z,8.50
2018-05-14T14:30:11.299Z,5.57
2018-05-14T14:32:38.703Z,10.27
2018-05-14T14:35:06.124Z,5.90
2018-05-14T14:37:33.528Z,8.07
2018-05-14T14:40:03.668Z,10.82
2018-05-14T14:42:31.084Z,7.85
2018-05-14T14:44:58.480Z,8.20
2018-05-14T14:47:25.903Z,7.60
2018-05-14T14:49:53.307Z,10.65
2018-05-14T14:52:20.864Z,6.57
2018-05-14T14:54:48.279Z,5.32
2018-05-14T14:57:15.809Z,7.78
2018-05-14T14:59:43.237Z,8.60
2018-05-14T15:05:01.213Z,13.82
2018-05-14T15:07:28.786Z,5.90
2018-05-14T15:09:56.290Z,5.65
2018-05-14T15:12:23.777Z,8.38
2018-05-14T15:14:51.177Z,8.75
2018-05-14T15:17:18.638Z,12.20
2018-05-14T15:19:46.056Z,5.55
2018-05-14T15:22:13.464Z,10.15
2018-05-14T15:24:40.879Z,5.43
2018-05-14T15:27:08.284Z,10.60
2018-05-14T15:29:35.695Z,9.48
2018-05-14T15:32:03.119Z,7.00
2018-05-14T15:34:30.626Z,7.87
2018-05-14T15:36:58.075Z,9.43
2018-05-14T15:39:25.535Z,7.20
2018-05-14T15:41:52.920Z,5.70
2018-05-14T15:44:20.339Z,9.55
2018-05-14T15:46:47.748Z,5.90
2018-05-14T15:49:15.204Z,6.62
2018-05-14T15:51:42.852Z,11.40
2018-05-14T15:54:10.313Z,7.70
2018-05-14T15:56:37.727Z,6.87
2018-05-14T15:59:05.213Z,8.93
2018-05-14T16:01:32.678Z,9.32
2018-05-14T16:04:00.420Z,7.03
2018-05-14T16:06:27.876Z,7.32
2018-05-14T16:08:55.396Z,9.57
2018-05-14T16:11:22.817Z,11.00
2018-05-14T16:13:50.465Z,11.20
2018-05-14T16:16:17.882Z,11.07
2018-05-14T16:18:45.499Z,6.78
2018-05-14T16:21:13.162Z,6.97
2018-05-14T16:23:40.578Z,9.90
2018-05-14T16:26:08.169Z,6.68
2018-05-14T16:28:35.689Z,7.60
2018-05-14T16:31:03.128Z,6.50
2018-05-14T16:33:30.527Z,7.85
2018-05-14T16:35:59.051Z,10.18
2018-05-14T16:38:26.535Z,7.53
2018-05-14T16:40:54.095Z,10.52
2018-05-14T16:43:21.492Z,7.32
2018-05-14T16:45:48.897Z,7.95
2018-05-14T16:48:16.333Z,8.15
2018-05-14T16:50:43.752Z,14.48
2018-05-14T16:53:11.177Z,6.80
2018-05-14T16:55:38.602Z,6.40
2018-05-14T16:58:06.064Z,9.15
2018-05-14T17:00:33.478Z,4.90
2018-05-14T17:03:01.092Z,9.05
2018-05-14T17:05:28.692Z,8.07
2018-05-14T17:07:56.159Z,12.18
2018-05-14T17:10:23.616Z,10.68
2018-05-14T17:12:50.993Z,9.40
2018-05-14T17:15:18.413Z,9.88
2018-05-14T17:17:45.844Z,10.38
2018-05-14T17:20:13.268Z,10.25
2018-05-14T17:22:40.672Z,9.50
2018-05-14T17:25:08.096Z,6.30
2018-05-14T17:27:35.499Z,9.30
2018-05-14T17:30:03.128Z,5.10
2018-05-14T17:32:30.532Z,6.70
2018-05-14T17:34:57.940Z,6.30
2018-05-14T17:37:25.384Z,9.35
2018-05-14T18:22:21.090Z,5.25
2018-05-14T18:24:51.375Z,8.93
2018-05-14T18:27:38.635Z,4.85
2018-05-14T18:30:11.616Z,7.32
2018-05-14T18:32:40.053Z,10.05
2018-05-14T18:35:13.056Z,7.70
2018-05-14T18:37:40.548Z,12.23
2018-05-14T18:40:07.986Z,7.87
2018-05-14T18:42:36.178Z,6.68
2018-05-14T18:45:03.584Z,6.35
2018-05-14T18:47:31.017Z,10.65
2018-05-14T18:49:58.470Z,7.32
2018-05-14T18:52:25.878Z,8.25
2018-05-14T18:54:53.440Z,5.85
2018-05-14T18:57:20.860Z,6.60
2018-05-14T18:59:48.267Z,12.10
2018-05-14T19:02:15.684Z,6.47
2018-05-14T19:04:43.197Z,6.68
2018-05-14T19:07:10.623Z,9.27
2018-05-14T19:09:38.073Z,6.93
2018-05-14T19:12:05.471Z,9.52
2018-05-14T19:14:32.896Z,9.27
2018-05-14T19:17:05.830Z,10.88
2018-05-14T19:19:33.331Z,10.25
2018-05-14T19:22:00.669Z,6.90
2018-05-14T19:24:28.103Z,6.18
2018-05-14T19:26:55.568Z,6.32
2018-05-14T19:29:34.163Z,9.40
2018-05-14T19:32:01.596Z,7.57
2018-05-14T19:34:34.561Z,7.65
2018-05-14T19:37:01.996Z,8.80
2018-05-14T19:39:35.022Z,10.25
2018-05-14T19:42:02.447Z,8.73
2018-05-14T19:44:29.856Z,7.67
2018-05-14T19:46:57.343Z,8.03
2018-05-14T19:49:24.907Z,7.80
2018-05-14T19:51:52.251Z,5.87
2018-05-14T19:54:19.694Z,8.57
2018-05-14T19:56:47.111Z,5.47
2018-05-14T19:59:14.524Z,10.50
2018-05-14T20:01:41.958Z,9.17
2018-05-14T20:04:09.791Z,4.60
2018-05-14T20:06:37.232Z,8.37
2018-05-14T20:09:05.229Z,10.57
2018-05-14T20:11:32.656Z,8.03
2018-05-14T20:14:00.156Z,9.83
2018-05-14T20:19:03.711Z,6.23
2018-05-14T20:21:31.113Z,14.87
2018-05-14T20:23:58.516Z,7.80
2018-05-14T20:26:25.929Z,7.00
2018-05-14T20:28:53.331Z,9.47
2018-05-14T20:31:20.780Z,9.17
2018-05-14T20:33:48.188Z,10.67
2018-05-14T20:36:15.617Z,6.30
2018-05-14T20:38:43.016Z,4.93
2018-05-14T20:41:10.425Z,5.03
2018-05-14T20:43:37.854Z,7.20
2018-05-14T20:46:05.257Z,9.27
2018-05-14T20:48:33.070Z,9.30
2018-05-14T20:51:00.471Z,9.73
2018-05-14T20:53:27.905Z,6.13
2018-05-14T20:55:55.760Z,6.07
2018-05-14T20:58:23.168Z,6.07
2018-05-14T21:00:50.576Z,6.83
2018-05-14T21:03:18.060Z,9.23
2018-05-14T21:05:45.412Z,8.17
2018-05-14T21:08:12.840Z,8.60
2018-05-14T21:10:40.347Z,10.93
2018-05-14T21:13:07.817Z,6.93
2018-05-14T21:15:35.259Z,14.20
2018-05-14T21:18:02.684Z,8.10
2018-05-14T21:20:30.084Z,8.17
2018-05-14T21:22:57.519Z,8.60
2018-05-14T21:25:24.916Z,7.73
2018-05-14T21:27:52.332Z,10.37
2018-05-14T21:30:19.931Z,5.37
2018-05-14T21:32:47.331Z,10.03
2018-05-14T21:35:14.804Z,7.10
2018-05-14T21:37:42.241Z,8.90
2018-05-14T21:40:09.677Z,9.30
2018-05-14T21:42:37.171Z,8.43
2018-05-14T21:45:04.519Z,10.57
2018-05-14T21:47:31.924Z,5.77
2018-05-14T21:49:59.421Z,7.07
2018-05-14T21:52:26.863Z,8.13
2018-05-14T21:54:54.265Z,6.57
2018-05-14T21:57:21.720Z,7.67
2018-05-14T21:59:49.120Z,7.10
2018-05-14T22:02:16.535Z,6.93
2018-05-14T22:04:43.952Z,8.50
2018-05-14T22:07:11.371Z,5.77
2018-05-14T22:09:38.808Z,10.40
2018-05-14T22:12:06.204Z,6.97
2018-05-14T22:14:33.620Z,9.70
2018-05-14T22:17:01.032Z,7.90
2018-05-14T22:19:28.456Z,5.83
2018-05-14T22:21:55.855Z,6.30
2018-05-14T22:24:23.286Z,8.73
2018-05-14T22:26:50.680Z,6.60
2018-05-14T22:29:18.107Z,5.43
2018-05-14T22:31:45.530Z,5.73
2018-05-14T22:34:12.933Z,10.73
2018-05-14T22:36:40.360Z,9.73
2018-05-14T22:39:07.806Z,8.43
2018-05-14T22:41:35.201Z,6.77
2018-05-14T22:44:03.179Z,10.83
2018-05-14T22:46:30.608Z,11.13
2018-05-14T22:48:58.042Z,6.10
2018-05-14T22:51:25.513Z,7.23
2018-05-14T22:53:52.921Z,14.23
2018-05-14T22:56:20.658Z,5.90
2018-05-14T22:58:48.073Z,6.77
2018-05-14T23:01:15.484Z,7.53
2018-05-14T23:03:42.912Z,7.00
2018-05-14T23:11:51.798Z,10.87
2018-05-14T23:17:09.485Z,6.13
2018-05-14T23:19:36.886Z,11.73
2018-05-14T23:22:04.289Z,7.47
2018-05-14T23:24:31.710Z,5.60
2018-05-14T23:26:59.107Z,10.33
2018-05-14T23:29:26.857Z,4.63
2018-05-14T23:31:54.265Z,8.50
2018-05-14T23:34:21.676Z,7.03
2018-05-14T23:36:49.263Z,10.20
2018-05-14T23:39:16.684Z,11.40
2018-05-14T23:41:44.088Z,7.27
2018-05-14T23:44:11.503Z,8.20
2018-05-14T23:46:38.915Z,5.83
2018-05-14T23:49:06.332Z,6.13
2018-05-14T23:51:33.744Z,6.33
2018-05-14T23:54:01.169Z,4.73
2018-05-14T23:56:28.588Z,6.03
2018-05-14T23:58:55.997Z,4.73
